createdAt,value
2022-11-16T00:00:13.017Z,14.63
2022-11-16T00:02:45.385Z,18.85
2022-11-16T00:05:18.561Z,14.85
2022-11-16T00:07:51.662Z,13.48
2022-11-16T00:10:24.099Z,12.05
2022-11-16T00:12:56.569Z,22.10
2022-11-16T00:15:29.023Z,21.20
2022-11-16T00:18:01.384Z,20.42
2022-11-16T00:20:33.795Z,69.30
2022-11-16T00:23:06.815Z,27.85
2022-11-16T00:25:39.230Z,24.95
2022-11-16T00:28:12.206Z,55.42
2022-11-16T00:30:44.577Z,24.38
2022-11-16T00:33:16.961Z,15.90
2022-11-16T00:35:49.358Z,19.02
2022-11-16T00:38:22.739Z,20.95
2022-11-16T00:40:55.170Z,18.77
2022-11-16T00:43:27.768Z,18.70
2022-11-16T00:46:00.200Z,14.75
2022-11-16T00:48:32.901Z,19.77
2022-11-16T00:51:05.931Z,16.08
2022-11-16T00:53:39.385Z,9.65
2022-11-16T00:56:12.080Z,19.45
2022-11-16T00:58:48.840Z,20.92
2022-11-16T01:01:22.801Z,14.82
2022-11-16T01:03:56.674Z,22.48
2022-11-16T01:06:29.100Z,22.65
2022-11-16T01:09:02.244Z,23.55
2022-11-16T01:11:52.723Z,24.05
2022-11-16T01:14:25.141Z,22.88
2022-11-16T01:16:57.857Z,23.60
2022-11-16T01:19:30.686Z,25.00
2022-11-16T01:22:03.547Z,22.13
2022-11-16T01:24:36.685Z,16.52
2022-11-16T01:27:09.077Z,19.50
2022-11-16T01:29:45.029Z,22.48
2022-11-16T01:32:17.584Z,21.60
2022-11-16T01:34:50.428Z,21.23
2022-11-16T01:37:31.042Z,22.85
2022-11-16T01:40:05.192Z,26.23
2022-11-16T01:42:38.894Z,21.88
2022-11-16T01:45:22.445Z,15.60
2022-11-16T01:47:57.604Z,16.92
2022-11-16T01:50:35.666Z,15.07
2022-11-16T01:53:10.401Z,18.27
2022-11-16T01:55:56.986Z,15.02
2022-11-16T01:58:34.769Z,19.92
2022-11-16T02:01:17.965Z,18.35
2022-11-16T02:03:55.542Z,16.50
2022-11-16T02:06:35.361Z,24.98
2022-11-16T02:09:56.610Z,21.17
2022-11-16T02:12:57.043Z,20.48
2022-11-16T02:15:42.939Z,16.00
2022-11-16T02:18:31.374Z,19.70
2022-11-16T02:21:14.812Z,19.63
2022-11-16T02:24:19.560Z,17.67
2022-11-16T02:27:22.739Z,22.17
2022-11-16T02:29:56.834Z,19.98
2022-11-16T02:32:33.382Z,21.27
2022-11-16T02:35:12.742Z,20.02
2022-11-16T02:37:52.480Z,19.07
2022-11-16T02:40:30.054Z,11.73
2022-11-16T02:43:07.500Z,15.70
2022-11-16T02:45:44.623Z,13.60
2022-11-16T02:48:22.613Z,19.85
2022-11-16T02:50:55.799Z,19.00
2022-11-16T02:53:28.208Z,15.00
2022-11-16T02:56:04.314Z,16.60
2022-11-16T02:58:37.235Z,9.93
2022-11-16T03:01:16.082Z,19.15
2022-11-16T03:03:53.418Z,16.45
2022-11-16T03:06:29.710Z,15.88
2022-11-16T03:09:08.290Z,13.27
2022-11-16T03:11:59.488Z,17.15
2022-11-16T03:14:38.004Z,19.77
2022-11-16T03:17:17.440Z,23.10
2022-11-16T03:19:57.637Z,15.38
2022-11-16T03:22:35.047Z,17.90
2022-11-16T03:25:10.490Z,12.13
2022-11-16T03:27:49.481Z,19.20
2022-11-16T03:30:24.882Z,14.98
2022-11-16T03:33:08.071Z,18.02
2022-11-16T03:35:49.033Z,24.63
2022-11-16T03:38:24.836Z,15.85
2022-11-16T03:41:01.373Z,18.00
2022-11-16T03:43:36.554Z,19.90
2022-11-16T03:46:10.199Z,23.23
2022-11-16T03:48:43.465Z,22.08
2022-11-16T03:51:25.414Z,19.83
2022-11-16T03:53:59.387Z,17.15
2022-11-16T03:56:31.888Z,22.48
2022-11-16T03:59:04.344Z,15.82
2022-11-16T04:01:40.436Z,15.57
2022-11-16T04:04:35.944Z,20.25
2022-11-16T04:07:28.330Z,17.92
2022-11-16T04:10:18.683Z,16.40
2022-11-16T04:13:10.562Z,13.90
2022-11-16T04:16:01.478Z,18.23
2022-11-16T04:18:52.011Z,18.70
2022-11-16T04:21:47.026Z,16.63
2022-11-16T04:24:22.747Z,17.52
2022-11-16T04:27:17.158Z,17.48
2022-11-16T04:29:50.434Z,18.55
2022-11-16T04:32:41.479Z,19.27
2022-11-16T04:35:40.843Z,18.92
2022-11-16T04:38:15.209Z,22.67
2022-11-16T04:40:47.609Z,20.02
2022-11-16T04:43:20.653Z,21.58
2022-11-16T04:46:11.043Z,17.77
2022-11-16T04:48:45.298Z,17.10
2022-11-16T04:51:17.721Z,17.10
2022-11-16T04:53:51.009Z,20.30
2022-11-16T04:56:27.586Z,16.02
2022-11-16T04:59:00.358Z,17.85
2022-11-16T05:01:50.920Z,20.38
2022-11-16T05:04:23.707Z,16.60
2022-11-16T05:06:56.835Z,19.42
2022-11-16T05:09:29.965Z,16.42
2022-11-16T05:12:02.981Z,16.10
2022-11-16T05:14:35.490Z,17.65
2022-11-16T05:17:08.498Z,16.20
2022-11-16T05:19:59.883Z,23.67
2022-11-16T05:22:34.653Z,20.45
2022-11-16T05:25:10.398Z,21.13
2022-11-16T05:27:43.338Z,14.88
2022-11-16T05:30:16.618Z,18.50
2022-11-16T05:32:49.285Z,15.93
2022-11-16T05:35:24.421Z,20.40
2022-11-16T05:37:57.066Z,20.90
2022-11-16T05:40:32.202Z,23.70
2022-11-16T05:43:04.598Z,21.02
2022-11-16T05:45:42.957Z,16.67
2022-11-16T05:48:17.150Z,15.32
2022-11-16T05:50:49.704Z,16.13
2022-11-16T05:53:28.593Z,22.43
2022-11-16T05:56:01.846Z,18.23
2022-11-16T05:58:35.741Z,20.55
2022-11-16T06:01:08.908Z,18.38
2022-11-16T06:03:41.443Z,17.17
2022-11-16T06:06:13.935Z,14.02
2022-11-16T06:08:47.293Z,18.13
2022-11-16T06:11:25.645Z,22.13
2022-11-16T06:13:58.097Z,16.63
2022-11-16T06:16:31.051Z,15.30
2022-11-16T06:19:04.762Z,13.98
2022-11-16T06:21:37.135Z,16.92
2022-11-16T06:24:13.105Z,13.48
2022-11-16T06:26:47.875Z,13.70
2022-11-16T06:29:20.483Z,14.02
2022-11-16T06:31:52.914Z,23.08
2022-11-16T06:34:25.454Z,11.88
2022-11-16T06:36:57.913Z,18.25
2022-11-16T06:39:30.418Z,16.92
2022-11-16T06:42:04.125Z,17.67
2022-11-16T06:44:36.603Z,17.48
2022-11-16T06:47:10.040Z,17.02
2022-11-16T06:49:42.534Z,16.88
2022-11-16T06:54:55.390Z,24.05
2022-11-16T06:57:28.697Z,18.10
2022-11-16T07:00:01.125Z,15.27
2022-11-16T07:02:33.633Z,16.23
2022-11-16T07:05:08.153Z,13.55
2022-11-16T07:07:40.672Z,12.23
2022-11-16T07:10:13.909Z,15.85
2022-11-16T07:12:48.468Z,16.02
2022-11-16T07:15:22.430Z,14.27
2022-11-16T07:17:54.855Z,15.40
2022-11-16T07:20:27.276Z,17.73
2022-11-16T07:23:00.728Z,13.73
2022-11-16T07:25:34.142Z,17.73
2022-11-16T07:28:08.136Z,17.23
2022-11-16T07:30:43.988Z,14.82
2022-11-16T07:33:19.468Z,14.90
2022-11-16T07:36:16.751Z,16.63
2022-11-16T07:38:49.246Z,20.17
2022-11-16T07:41:21.720Z,21.85
2022-11-16T07:44:08.435Z,15.15
2022-11-16T07:46:47.943Z,15.73
2022-11-16T07:49:21.809Z,14.18
2022-11-16T07:52:03.393Z,14.05
2022-11-16T07:54:56.017Z,14.00
2022-11-16T07:57:31.051Z,14.25
2022-11-16T08:00:08.953Z,14.60
2022-11-16T08:02:51.789Z,16.73
2022-11-16T08:05:26.051Z,15.90
2022-11-16T08:07:59.679Z,17.92
2022-11-16T08:10:32.280Z,18.33
2022-11-16T08:13:05.343Z,9.88
2022-11-16T08:15:38.411Z,14.25
2022-11-16T08:18:13.376Z,14.70
2022-11-16T08:20:46.005Z,14.50
2022-11-16T08:23:18.566Z,11.93
2022-11-16T08:25:51.802Z,14.23
2022-11-16T08:28:24.201Z,16.42
2022-11-16T08:30:58.146Z,12.23
2022-11-16T08:33:30.884Z,16.38
2022-11-16T08:36:09.486Z,14.00
2022-11-16T08:38:47.153Z,13.45
2022-11-16T08:41:20.602Z,12.95
2022-11-16T08:43:53.563Z,11.05
2022-11-16T08:46:28.727Z,11.57
2022-11-16T08:49:09.301Z,9.30
2022-11-16T08:51:41.747Z,10.85
2022-11-16T08:54:14.147Z,13.18
2022-11-16T08:56:48.025Z,9.45
2022-11-16T08:59:20.434Z,9.27
2022-11-16T09:01:56.956Z,15.98
2022-11-16T09:04:34.079Z,7.53
2022-11-16T09:09:42.033Z,12.98
2022-11-16T09:12:14.424Z,10.68
2022-11-16T09:14:46.773Z,9.85
2022-11-16T09:17:23.088Z,10.93
2022-11-16T09:19:55.767Z,8.68
2022-11-16T09:22:28.141Z,9.10
2022-11-16T09:25:00.874Z,8.95
2022-11-16T09:27:33.208Z,12.43
2022-11-16T09:30:07.029Z,8.48
2022-11-16T09:32:40.033Z,6.60
2022-11-16T09:35:12.461Z,10.20
2022-11-16T09:37:44.806Z,7.57
2022-11-16T09:40:17.511Z,10.65
2022-11-16T09:43:02.395Z,8.98
2022-11-16T09:45:43.882Z,9.18
2022-11-16T09:48:19.532Z,7.20
2022-11-16T09:51:06.732Z,7.55
2022-11-16T09:53:44.488Z,9.32
2022-11-16T09:56:22.454Z,7.75
2022-11-16T09:59:02.453Z,6.68
2022-11-16T10:04:15.282Z,7.50
2022-11-16T10:06:52.904Z,7.63
2022-11-16T10:09:25.647Z,8.05
2022-11-16T10:12:11.284Z,8.65
2022-11-16T10:15:14.580Z,6.70
2022-11-16T10:18:11.308Z,6.18
2022-11-16T10:21:12.290Z,6.85
2022-11-16T10:24:01.462Z,5.85
2022-11-16T10:26:41.012Z,6.97
2022-11-16T10:29:33.797Z,4.25
2022-11-16T10:32:16.556Z,7.88
2022-11-16T10:34:52.873Z,7.35
2022-11-16T10:37:30.742Z,7.80
2022-11-16T10:40:16.732Z,5.63
2022-11-16T10:42:59.972Z,6.82
2022-11-16T10:45:43.096Z,5.60
2022-11-16T10:48:27.129Z,5.53
2022-11-16T10:50:59.522Z,7.72
2022-11-16T10:53:35.923Z,28.33
2022-11-16T10:56:17.141Z,7.50
2022-11-16T10:58:55.448Z,4.75
2022-11-16T11:01:31.331Z,6.82
2022-11-16T11:04:15.931Z,8.60
2022-11-16T11:06:51.185Z,4.35
2022-11-16T11:09:27.986Z,5.07
2022-11-16T11:12:30.686Z,7.32
2022-11-16T11:15:15.268Z,5.30
2022-11-16T11:17:49.527Z,5.45
2022-11-16T11:20:24.064Z,7.22
2022-11-16T11:22:58.153Z,7.13
2022-11-16T11:25:33.831Z,4.72
2022-11-16T11:28:16.314Z,5.70
2022-11-16T11:30:57.679Z,4.85
2022-11-16T11:33:33.815Z,3.65
2022-11-16T11:36:12.651Z,5.28
2022-11-16T11:38:56.936Z,7.30
2022-11-16T11:41:36.514Z,4.55
2022-11-16T11:44:16.548Z,5.55
2022-11-16T11:49:52.620Z,6.20
2022-11-16T11:52:32.386Z,8.15
2022-11-16T11:55:08.268Z,7.38
2022-11-16T11:57:43.992Z,3.55
2022-11-16T12:00:17.709Z,6.18
2022-11-16T12:03:17.023Z,4.22
2022-11-16T12:06:07.364Z,5.22
2022-11-16T12:09:00.474Z,5.50
2022-11-16T12:11:44.262Z,2.97
2022-11-16T12:14:28.792Z,3.03
2022-11-16T12:17:09.352Z,3.63
2022-11-16T12:20:05.194Z,4.65
2022-11-16T12:22:54.076Z,6.88
2022-11-16T12:25:33.830Z,4.67
2022-11-16T12:28:21.573Z,2.92
2022-11-16T12:31:18.637Z,3.97
2022-11-16T12:34:01.089Z,3.40
2022-11-16T12:36:45.710Z,4.43
2022-11-16T12:39:23.690Z,4.57
2022-11-16T12:42:22.797Z,2.08
2022-11-16T12:45:31.980Z,3.05
2022-11-16T12:48:32.098Z,4.82
2022-11-16T12:53:52.305Z,3.83
2022-11-16T12:56:49.965Z,5.03
2022-11-16T12:59:42.599Z,5.95
2022-11-16T13:02:27.793Z,3.25
2022-11-16T13:05:11.724Z,4.25
2022-11-16T13:07:48.248Z,11.55
2022-11-16T13:10:26.236Z,17.35
2022-11-16T13:16:06.231Z,4.07
2022-11-16T13:18:41.616Z,17.02
2022-11-16T13:21:24.485Z,7.72
2022-11-16T13:24:09.551Z,5.70
2022-11-16T13:26:47.923Z,1.98
2022-11-16T13:29:29.598Z,3.63
2022-11-16T13:32:11.413Z,5.65
2022-11-16T13:34:45.015Z,2.30
2022-11-16T13:37:46.556Z,4.28
2022-11-16T13:40:27.223Z,6.38
2022-11-16T13:43:13.389Z,4.47
2022-11-16T13:45:58.909Z,3.72
2022-11-16T13:48:34.789Z,3.15
2022-11-16T13:51:17.700Z,2.67
2022-11-16T13:56:49.318Z,2.88
2022-11-16T13:59:25.783Z,3.78
2022-11-16T14:01:59.749Z,4.68
2022-11-16T14:04:57.164Z,2.53
2022-11-16T14:07:42.375Z,4.50
2022-11-16T14:10:54.818Z,3.92
2022-11-16T14:13:39.569Z,2.83
2022-11-16T14:16:54.699Z,6.90
2022-11-16T14:19:54.574Z,5.05
2022-11-16T14:25:18.884Z,5.68
2022-11-16T14:27:59.688Z,7.03
2022-11-16T14:30:43.061Z,4.18
2022-11-16T14:33:27.779Z,10.38
2022-11-16T14:36:02.665Z,7.15
2022-11-16T14:38:38.317Z,5.75
2022-11-16T14:41:19.677Z,6.07
2022-11-16T14:43:55.024Z,8.50
2022-11-16T14:46:34.474Z,5.30
2022-11-16T14:49:14.213Z,4.97
2022-11-16T14:54:27.122Z,10.00
2022-11-16T14:57:01.443Z,3.75
2022-11-16T14:59:33.812Z,6.20
2022-11-16T15:02:19.180Z,6.47
2022-11-16T15:04:52.987Z,5.22
2022-11-16T15:07:28.405Z,4.55
2022-11-16T15:10:00.975Z,5.38
2022-11-16T15:12:42.405Z,7.90
2022-11-16T15:15:17.121Z,5.80
2022-11-16T15:18:06.488Z,6.38
2022-11-16T15:20:48.856Z,6.65
2022-11-16T15:23:23.865Z,7.20
2022-11-16T15:26:01.655Z,5.40
2022-11-16T15:28:34.210Z,5.45
2022-11-16T15:31:08.761Z,4.53
2022-11-16T15:33:43.511Z,5.82
2022-11-16T15:36:23.979Z,5.97
2022-11-16T15:38:58.138Z,7.10
2022-11-16T15:41:30.786Z,4.97
2022-11-16T15:44:15.036Z,5.57
2022-11-16T15:46:50.572Z,9.77
2022-11-16T15:49:29.514Z,3.92
2022-11-16T15:52:01.984Z,5.47
2022-11-16T15:54:55.276Z,6.15
2022-11-16T15:57:27.678Z,6.53
2022-11-16T16:00:00.188Z,6.30
2022-11-16T16:02:32.655Z,8.23
2022-11-16T16:05:06.833Z,6.18
2022-11-16T16:07:40.759Z,9.32
2022-11-16T16:10:23.200Z,9.68
2022-11-16T16:12:56.971Z,12.00
2022-11-16T16:15:33.198Z,12.55
2022-11-16T16:18:39.940Z,11.68
2022-11-16T16:21:14.383Z,7.63
2022-11-16T16:23:48.014Z,6.38
2022-11-16T16:26:21.827Z,6.93
2022-11-16T16:28:54.209Z,5.50
2022-11-16T16:31:26.633Z,8.40
2022-11-16T16:33:59.284Z,9.65
2022-11-16T16:36:32.561Z,12.43
2022-11-16T16:39:05.017Z,9.80
2022-11-16T16:41:38.564Z,17.90
2022-11-16T16:44:14.957Z,9.35
2022-11-16T16:46:47.698Z,10.48
2022-11-16T16:49:20.187Z,9.05
2022-11-16T16:51:53.688Z,5.53
2022-11-16T16:54:28.505Z,8.73
2022-11-16T16:57:02.016Z,10.15
2022-11-16T16:59:34.410Z,9.18
2022-11-16T17:02:09.255Z,5.85
2022-11-16T17:04:43.451Z,11.65
2022-11-16T17:07:17.355Z,7.68
2022-11-16T17:09:53.281Z,7.45
2022-11-16T17:12:25.959Z,9.20
2022-11-16T17:15:00.843Z,8.50
2022-11-16T17:17:35.503Z,8.07
2022-11-16T17:20:11.001Z,10.55
2022-11-16T17:22:45.463Z,7.10
2022-11-16T17:25:18.065Z,7.72
2022-11-16T17:27:50.524Z,9.60
2022-11-16T17:30:24.933Z,4.70
2022-11-16T17:32:57.417Z,4.88
2022-11-16T17:35:29.868Z,9.25
2022-11-16T17:38:05.470Z,15.95
2022-11-16T17:40:38.021Z,7.35
2022-11-16T17:43:11.187Z,9.70
2022-11-16T17:45:45.909Z,7.53
2022-11-16T17:48:19.428Z,8.07
2022-11-16T17:50:52.293Z,9.00
2022-11-16T17:53:32.520Z,5.07
2022-11-16T17:56:06.538Z,6.22
2022-11-16T17:58:39.659Z,5.30
2022-11-16T18:01:13.291Z,5.63
2022-11-16T18:03:46.727Z,5.30
2022-11-16T18:06:20.892Z,6.50
2022-11-16T18:08:54.237Z,5.93
2022-11-16T18:11:27.855Z,4.85
2022-11-16T18:14:01.001Z,9.95
2022-11-16T18:16:34.067Z,5.18
2022-11-16T18:19:07.000Z,6.60
2022-11-16T18:21:40.393Z,8.07
2022-11-16T18:24:14.096Z,6.88
2022-11-16T18:26:46.479Z,3.85
2022-11-16T18:29:20.846Z,3.42
2022-11-16T18:31:53.223Z,3.55
2022-11-16T18:34:25.697Z,5.43
2022-11-16T18:36:58.073Z,5.78
2022-11-16T18:39:31.704Z,5.80
2022-11-16T18:42:04.817Z,7.15
2022-11-16T18:44:37.467Z,4.55
2022-11-16T18:47:09.867Z,5.88
2022-11-16T18:49:42.346Z,5.45
2022-11-16T18:52:16.891Z,7.30
2022-11-16T18:54:50.644Z,6.43
2022-11-16T18:57:23.035Z,5.53
2022-11-16T18:59:56.386Z,4.13
2022-11-16T19:02:28.804Z,4.22
2022-11-16T19:05:01.204Z,6.78
2022-11-16T19:07:35.200Z,2.90
2022-11-16T19:10:09.550Z,6.18
2022-11-16T19:12:41.931Z,6.45
2022-11-16T19:15:14.388Z,4.07
2022-11-16T19:18:14.273Z,4.82
2022-11-16T19:20:39.460Z,6.30
2022-11-16T19:23:11.840Z,5.38
2022-11-16T19:25:45.246Z,12.45
2022-11-16T19:28:17.906Z,8.82
2022-11-16T19:30:50.344Z,6.25
2022-11-16T19:33:23.331Z,8.00
2022-11-16T19:35:55.674Z,7.00
2022-11-16T19:38:29.384Z,9.15
2022-11-16T19:41:02.763Z,6.68
2022-11-16T19:43:35.623Z,4.47
2022-11-16T19:46:10.091Z,3.67
2022-11-16T19:48:45.056Z,6.80
2022-11-16T19:51:22.109Z,4.03
2022-11-16T19:53:55.225Z,5.47
2022-11-16T19:56:29.070Z,4.57
2022-11-16T19:59:01.526Z,3.72
2022-11-16T20:01:33.978Z,5.28
2022-11-16T20:04:06.411Z,3.15
2022-11-16T20:06:39.961Z,5.35
2022-11-16T20:09:12.327Z,5.80
2022-11-16T20:11:45.387Z,9.05
2022-11-16T20:14:17.786Z,6.07
2022-11-16T20:16:50.123Z,5.97
2022-11-16T20:19:22.397Z,3.95
2022-11-16T20:21:54.718Z,7.78
2022-11-16T20:24:27.061Z,8.80
2022-11-16T20:27:00.081Z,8.15
2022-11-16T20:29:32.406Z,4.57
2022-11-16T20:32:05.021Z,6.82
2022-11-16T20:34:37.443Z,4.13
2022-11-16T20:37:09.808Z,6.22
2022-11-16T20:39:42.151Z,6.82
2022-11-16T20:42:15.164Z,5.07
2022-11-16T20:44:47.533Z,4.82
2022-11-16T20:47:19.892Z,2.83
2022-11-16T20:49:52.315Z,5.15
2022-11-16T20:52:25.096Z,7.15
2022-11-16T20:54:57.499Z,4.22
2022-11-16T20:57:30.614Z,3.80
2022-11-16T21:00:04.391Z,6.50
2022-11-16T21:02:36.730Z,4.80
2022-11-16T21:05:09.492Z,5.13
2022-11-16T21:07:43.193Z,4.07
2022-11-16T21:10:19.233Z,3.80
2022-11-16T21:13:10.721Z,2.75
2022-11-16T21:15:43.049Z,2.92
2022-11-16T21:18:15.371Z,2.55
2022-11-16T21:20:47.677Z,6.68
2022-11-16T21:23:20.005Z,2.78
2022-11-16T21:25:52.404Z,2.50
2022-11-16T21:28:25.765Z,3.38
2022-11-16T21:30:59.326Z,4.00
2022-11-16T21:33:32.081Z,3.17
2022-11-16T21:36:05.672Z,2.28
2022-11-16T21:38:38.311Z,3.38
2022-11-16T21:41:11.728Z,2.38
2022-11-16T21:43:45.416Z,2.78
2022-11-16T21:46:19.402Z,1.73
2022-11-16T21:48:53.122Z,3.72
2022-11-16T21:51:26.676Z,3.88
2022-11-16T21:53:59.007Z,1.90
2022-11-16T21:56:31.428Z,5.43
2022-11-16T21:59:04.428Z,3.25
2022-11-16T22:01:51.316Z,2.95
2022-11-16T22:04:41.624Z,2.72
2022-11-16T22:07:32.767Z,4.95
2022-11-16T22:10:07.152Z,3.85
2022-11-16T22:12:39.510Z,2.70
2022-11-16T22:15:12.598Z,2.60
2022-11-16T22:17:45.214Z,2.60
2022-11-16T22:20:17.642Z,2.67
2022-11-16T22:22:50.029Z,2.97
2022-11-16T22:25:22.549Z,3.20
2022-11-16T22:30:51.738Z,3.53
2022-11-16T22:33:24.524Z,4.55
2022-11-16T22:35:57.169Z,3.63
2022-11-16T22:38:29.949Z,2.60
2022-11-16T22:41:02.447Z,3.25
2022-11-16T22:43:36.744Z,3.63
2022-11-16T22:46:10.805Z,4.80
2022-11-16T22:48:44.276Z,2.97
2022-11-16T22:51:19.629Z,2.63
2022-11-16T22:53:53.541Z,4.18
2022-11-16T22:56:27.150Z,3.42
2022-11-16T22:59:00.400Z,8.95
2022-11-16T23:01:33.411Z,1.92
2022-11-16T23:04:05.785Z,3.95
2022-11-16T23:06:38.365Z,4.78
2022-11-16T23:09:10.675Z,4.75
2022-11-16T23:12:01.231Z,3.67
2022-11-16T23:14:51.708Z,4.18
2022-11-16T23:17:24.755Z,3.60
2022-11-16T23:20:17.776Z,3.97
2022-11-16T23:23:08.368Z,4.28
2022-11-16T23:34:57.806Z,4.05
2022-11-16T23:37:30.195Z,4.95
2022-11-16T23:40:06.366Z,2.67
2022-11-16T23:42:56.886Z,3.88
2022-11-16T23:45:29.336Z,3.53
2022-11-16T23:48:01.882Z,1.85
2022-11-16T23:50:35.700Z,2.70
2022-11-16T23:53:09.098Z,4.18
2022-11-16T23:55:41.490Z,4.68
2022-11-16T23:58:14.674Z,3.72
